createdAt,value
2023-01-17T00:02:09.358Z,84.57
2023-01-17T00:05:00.760Z,84.74
2023-01-17T00:07:47.447Z,85.08
2023-01-17T00:10:19.087Z,84.77
2023-01-17T00:12:49.973Z,84.40
2023-01-17T00:15:19.895Z,84.57
2023-01-17T00:17:48.892Z,83.90
2023-01-17T00:20:36.911Z,84.34
2023-01-17T00:23:24.631Z,83.89
2023-01-17T00:26:07.254Z,83.88
2023-01-17T00:28:36.613Z,83.79
2023-01-17T00:31:04.688Z,84.18
2023-01-17T00:33:31.898Z,83.67
2023-01-17T00:36:00.047Z,84.25
2023-01-17T00:38:28.961Z,83.81
2023-01-17T00:41:02.437Z,83.58
2023-01-17T00:43:48.402Z,84.01
2023-01-17T00:46:34.435Z,83.71
2023-01-17T00:49:20.116Z,84.45
2023-01-17T00:52:05.657Z,83.99
2023-01-17T00:54:50.958Z,83.92
2023-01-17T00:57:38.151Z,83.74
2023-01-17T01:00:24.767Z,84.44
2023-01-17T01:03:10.549Z,84.03
2023-01-17T01:05:56.216Z,84.24
2023-01-17T01:08:43.602Z,84.25
2023-01-17T01:11:31.288Z,84.16
2023-01-17T01:14:19.030Z,84.81
2023-01-17T01:17:05.268Z,84.42
2023-01-17T01:19:50.601Z,84.95
2023-01-17T01:22:36.062Z,84.88
2023-01-17T01:25:22.491Z,84.35
2023-01-17T01:28:07.999Z,84.26
2023-01-17T01:30:55.599Z,83.26
2023-01-17T01:33:22.337Z,84.06
2023-01-17T01:35:52.470Z,83.96
2023-01-17T01:38:22.494Z,84.12
2023-01-17T01:40:52.779Z,83.76
2023-01-17T01:43:22.727Z,84.24
2023-01-17T01:45:56.587Z,83.89
2023-01-17T01:48:36.941Z,84.49
2023-01-17T01:51:10.070Z,83.75
2023-01-17T01:53:41.742Z,83.48
2023-01-17T01:56:13.362Z,83.40
2023-01-17T01:58:43.489Z,83.16
2023-01-17T02:01:15.342Z,83.13
2023-01-17T02:03:44.180Z,82.42
2023-01-17T02:06:24.607Z,82.18
2023-01-17T02:08:52.975Z,81.88
2023-01-17T02:11:20.889Z,81.68
2023-01-17T02:13:48.811Z,81.14
2023-01-17T02:16:34.935Z,81.06
2023-01-17T02:19:24.088Z,80.85
2023-01-17T02:22:04.780Z,80.67
2023-01-17T02:24:59.108Z,80.76
2023-01-17T02:27:29.349Z,80.28
2023-01-17T02:30:33.671Z,79.74
2023-01-17T02:33:07.951Z,78.90
2023-01-17T02:35:42.392Z,79.13
2023-01-17T02:38:22.384Z,80.02
2023-01-17T02:40:54.514Z,80.00
2023-01-17T02:43:26.147Z,79.32
2023-01-17T02:45:55.520Z,79.26
2023-01-17T02:48:27.954Z,80.09
2023-01-17T02:51:09.980Z,79.55
2023-01-17T02:53:50.118Z,79.33
2023-01-17T02:56:35.116Z,78.93
2023-01-17T02:59:11.320Z,79.10
2023-01-17T03:01:49.647Z,78.83
2023-01-17T03:04:25.986Z,78.98
2023-01-17T03:06:59.280Z,79.53
2023-01-17T03:09:28.437Z,78.89
2023-01-17T03:11:56.643Z,79.61
2023-01-17T03:14:24.504Z,78.33
2023-01-17T03:16:55.010Z,78.55
2023-01-17T03:19:23.623Z,78.57
2023-01-17T03:21:51.553Z,78.55
2023-01-17T03:24:19.900Z,78.85
2023-01-17T03:26:47.988Z,78.88
2023-01-17T03:29:16.813Z,78.13
2023-01-17T03:31:45.233Z,78.60
2023-01-17T03:34:15.037Z,78.17
2023-01-17T03:36:42.954Z,78.58
2023-01-17T03:39:12.275Z,77.55
2023-01-17T03:41:40.329Z,77.61
2023-01-17T03:44:08.221Z,77.78
2023-01-17T03:46:36.980Z,78.19
2023-01-17T03:49:04.928Z,78.14
2023-01-17T03:51:34.236Z,78.72
2023-01-17T03:54:02.965Z,79.18
2023-01-17T03:56:30.894Z,79.64
2023-01-17T03:58:58.971Z,79.22
2023-01-17T04:01:27.544Z,80.03
2023-01-17T04:03:55.560Z,80.05
2023-01-17T04:06:23.819Z,80.75
2023-01-17T04:08:53.554Z,80.51
2023-01-17T04:11:21.425Z,81.50
2023-01-17T04:13:49.301Z,81.74
2023-01-17T04:16:19.399Z,82.06
2023-01-17T04:18:47.254Z,82.97
2023-01-17T04:21:15.297Z,83.53
2023-01-17T04:23:43.631Z,84.42
2023-01-17T04:26:13.375Z,84.81
2023-01-17T04:28:41.379Z,85.10
2023-01-17T04:31:14.813Z,85.41
2023-01-17T04:33:42.770Z,84.97
2023-01-17T04:36:11.319Z,85.42
2023-01-17T04:38:39.326Z,84.47
2023-01-17T04:41:07.194Z,85.07
2023-01-17T04:43:36.492Z,84.47
2023-01-17T04:46:10.359Z,83.94
2023-01-17T04:48:38.596Z,83.91
2023-01-17T04:51:07.452Z,83.42
2023-01-17T04:53:35.588Z,83.82
2023-01-17T04:56:03.697Z,84.07
2023-01-17T04:58:33.369Z,84.31
2023-01-17T05:01:04.916Z,83.66
2023-01-17T05:03:33.079Z,84.34
2023-01-17T05:06:00.958Z,84.54
2023-01-17T05:08:29.784Z,83.95
2023-01-17T05:10:57.623Z,84.09
2023-01-17T05:13:25.941Z,84.29
2023-01-17T05:15:54.696Z,85.02
2023-01-17T05:18:24.009Z,84.38
2023-01-17T05:20:51.910Z,84.88
2023-01-17T05:23:20.308Z,85.56
2023-01-17T05:25:48.194Z,84.94
2023-01-17T05:28:16.233Z,85.16
2023-01-17T05:30:44.560Z,84.22
2023-01-17T05:33:12.454Z,83.89
2023-01-17T05:35:41.746Z,84.04
2023-01-17T05:38:10.460Z,84.75
2023-01-17T05:40:38.295Z,84.81
2023-01-17T05:43:06.276Z,83.70
2023-01-17T05:45:34.991Z,83.99
2023-01-17T05:48:04.191Z,84.04
2023-01-17T05:50:34.343Z,83.17
2023-01-17T05:53:05.960Z,83.76
2023-01-17T05:55:35.135Z,82.78
2023-01-17T05:58:03.397Z,83.12
2023-01-17T06:00:32.631Z,83.43
2023-01-17T06:03:01.676Z,82.08
2023-01-17T06:05:33.633Z,82.45
2023-01-17T06:08:02.953Z,82.28
2023-01-17T06:10:31.106Z,81.89
2023-01-17T06:13:04.201Z,81.37
2023-01-17T06:15:32.601Z,81.17
2023-01-17T06:18:06.112Z,81.11
2023-01-17T06:20:34.562Z,80.77
2023-01-17T06:23:05.544Z,81.55
2023-01-17T06:25:38.384Z,80.50
2023-01-17T06:28:07.114Z,81.17
2023-01-17T06:30:35.302Z,79.95
2023-01-17T06:33:03.457Z,79.69
2023-01-17T06:35:31.458Z,79.48
2023-01-17T06:38:00.559Z,79.56
2023-01-17T06:40:31.674Z,79.48
2023-01-17T06:43:02.239Z,78.88
2023-01-17T06:45:31.007Z,79.52
2023-01-17T06:48:00.180Z,78.25
2023-01-17T06:50:28.411Z,78.01
2023-01-17T06:52:57.661Z,77.83
2023-01-17T06:55:28.966Z,78.23
2023-01-17T06:57:59.564Z,78.19
2023-01-17T07:00:30.785Z,77.89
2023-01-17T07:03:00.149Z,77.76
2023-01-17T07:05:28.539Z,78.65
2023-01-17T07:07:56.699Z,77.42
2023-01-17T07:10:25.049Z,77.93
2023-01-17T07:12:53.272Z,77.72
2023-01-17T07:15:22.486Z,77.19
2023-01-17T07:17:50.382Z,76.65
2023-01-17T07:20:20.036Z,76.74
2023-01-17T07:22:48.144Z,77.60
2023-01-17T07:25:17.607Z,77.56
2023-01-17T07:27:45.674Z,77.39
2023-01-17T07:30:14.511Z,77.96
2023-01-17T07:32:43.848Z,78.29
2023-01-17T07:35:11.751Z,78.43
2023-01-17T07:37:40.023Z,78.14
2023-01-17T07:40:09.746Z,75.41
2023-01-17T07:42:38.121Z,75.56
2023-01-17T07:45:07.584Z,75.55
2023-01-17T07:47:35.924Z,74.58
2023-01-17T07:50:06.028Z,75.32
2023-01-17T07:52:34.033Z,75.07
2023-01-17T07:55:02.571Z,74.60
2023-01-17T07:57:32.682Z,73.62
2023-01-17T08:00:00.527Z,74.64
2023-01-17T08:02:28.437Z,73.01
2023-01-17T08:04:59.732Z,73.57
2023-01-17T08:07:30.085Z,73.83
2023-01-17T08:10:03.124Z,74.03
2023-01-17T08:12:31.525Z,74.27
2023-01-17T08:15:00.128Z,74.95
2023-01-17T08:17:28.430Z,75.51
2023-01-17T08:19:56.710Z,75.46
2023-01-17T08:22:24.737Z,76.63
2023-01-17T08:24:54.306Z,76.11
2023-01-17T08:27:22.783Z,76.95
2023-01-17T08:29:50.861Z,77.04
2023-01-17T08:32:19.944Z,77.66
2023-01-17T08:34:48.279Z,77.97
2023-01-17T08:37:16.180Z,78.37
2023-01-17T08:39:44.305Z,79.18
2023-01-17T08:42:13.930Z,78.29
2023-01-17T08:44:43.582Z,78.30
2023-01-17T08:47:11.716Z,78.55
2023-01-17T08:49:40.163Z,79.45
2023-01-17T08:52:08.934Z,78.60
2023-01-17T08:54:36.774Z,78.36
2023-01-17T08:57:05.738Z,77.14
2023-01-17T08:59:35.054Z,77.09
2023-01-17T09:02:07.145Z,75.36
2023-01-17T09:04:35.150Z,74.58
2023-01-17T09:07:03.263Z,74.57
2023-01-17T09:09:31.652Z,73.90
2023-01-17T09:11:59.510Z,74.04
2023-01-17T09:14:27.505Z,73.50
2023-01-17T09:16:57.461Z,73.76
2023-01-17T09:19:25.305Z,73.03
2023-01-17T09:21:53.214Z,73.26
2023-01-17T09:24:21.129Z,72.23
2023-01-17T09:26:49.012Z,72.36
2023-01-17T09:29:17.977Z,72.28
2023-01-17T09:31:47.819Z,72.15
2023-01-17T09:34:18.619Z,72.34
2023-01-17T09:36:46.700Z,72.19
2023-01-17T09:39:16.235Z,71.57
2023-01-17T09:41:53.306Z,71.08
2023-01-17T09:44:29.252Z,70.23
2023-01-17T09:47:00.777Z,68.98
2023-01-17T09:49:38.929Z,68.13
2023-01-17T09:52:09.831Z,67.93
2023-01-17T09:54:41.395Z,68.95
2023-01-17T09:57:19.495Z,68.81
2023-01-17T10:00:03.191Z,67.76
2023-01-17T10:02:54.900Z,65.93
2023-01-17T10:05:51.477Z,64.14
2023-01-17T10:08:32.634Z,65.20
2023-01-17T10:11:25.880Z,64.23
2023-01-17T10:14:05.281Z,64.16
2023-01-17T10:16:46.209Z,62.85
2023-01-17T10:19:33.343Z,61.91
2023-01-17T10:22:30.949Z,62.08
2023-01-17T10:25:23.652Z,61.90
2023-01-17T10:28:01.157Z,58.81
2023-01-17T10:30:36.807Z,60.39
2023-01-17T10:33:14.610Z,61.35
2023-01-17T10:35:53.120Z,60.11
2023-01-17T10:38:27.364Z,57.72
2023-01-17T10:41:00.955Z,57.32
2023-01-17T10:43:38.577Z,57.87
2023-01-17T10:46:06.930Z,57.23
2023-01-17T10:48:40.302Z,57.55
2023-01-17T10:51:27.978Z,53.80
2023-01-17T10:54:12.763Z,55.26
2023-01-17T10:56:42.637Z,53.51
2023-01-17T10:59:19.915Z,54.25
2023-01-17T11:01:51.013Z,52.24
2023-01-17T11:04:22.268Z,52.69
2023-01-17T11:07:14.728Z,53.61
2023-01-17T11:09:46.904Z,54.11
2023-01-17T11:12:30.756Z,53.86
2023-01-17T11:15:03.777Z,54.24
2023-01-17T11:17:33.619Z,53.00
2023-01-17T11:20:20.108Z,52.91
2023-01-17T11:23:03.626Z,53.15
2023-01-17T11:25:35.498Z,51.76
2023-01-17T11:28:06.335Z,51.89
2023-01-17T11:30:34.346Z,50.83
2023-01-17T11:33:06.577Z,49.71
2023-01-17T11:35:36.787Z,50.59
2023-01-17T11:38:08.208Z,50.10
2023-01-17T11:40:41.169Z,51.12
2023-01-17T11:43:24.396Z,50.56
2023-01-17T11:46:04.990Z,49.20
2023-01-17T11:48:38.958Z,50.02
2023-01-17T11:51:19.658Z,49.98
2023-01-17T11:53:49.646Z,48.19
2023-01-17T11:56:28.943Z,48.23
2023-01-17T11:59:15.451Z,50.46
2023-01-17T12:01:50.725Z,50.30
2023-01-17T12:04:26.087Z,48.44
2023-01-17T12:07:24.388Z,48.96
2023-01-17T12:10:04.270Z,47.96
2023-01-17T12:13:01.821Z,48.55
2023-01-17T12:15:44.915Z,49.19
2023-01-17T12:18:30.301Z,48.48
2023-01-17T12:21:12.700Z,46.74
2023-01-17T12:24:01.960Z,47.38
2023-01-17T12:26:39.501Z,48.34
2023-01-17T12:29:31.461Z,48.88
2023-01-17T12:32:15.910Z,47.08
2023-01-17T12:34:51.857Z,50.24
2023-01-17T12:37:24.830Z,49.39
2023-01-17T12:39:59.539Z,49.09
2023-01-17T12:42:32.971Z,50.80
2023-01-17T12:45:06.960Z,48.99
2023-01-17T12:47:43.221Z,49.63
2023-01-17T12:50:22.346Z,51.00
2023-01-17T12:53:03.689Z,50.02
2023-01-17T12:55:38.595Z,48.31
2023-01-17T12:58:18.011Z,50.06
2023-01-17T13:00:52.407Z,51.35
2023-01-17T13:03:27.823Z,50.70
2023-01-17T13:05:58.666Z,50.87
2023-01-17T13:08:35.510Z,49.75
2023-01-17T13:11:10.604Z,51.53
2023-01-17T13:13:39.747Z,51.40
2023-01-17T13:16:16.121Z,50.70
2023-01-17T13:18:47.517Z,50.72
2023-01-17T13:21:31.330Z,50.15
2023-01-17T13:24:17.643Z,50.37
2023-01-17T13:27:01.224Z,50.58
2023-01-17T13:29:42.130Z,51.36
2023-01-17T13:32:27.635Z,50.73
2023-01-17T13:35:15.953Z,49.25
2023-01-17T13:37:59.342Z,50.16
2023-01-17T13:40:35.356Z,51.47
2023-01-17T13:43:05.219Z,51.33
2023-01-17T13:45:35.825Z,51.29
2023-01-17T13:48:31.126Z,52.77
2023-01-17T13:51:02.647Z,51.42
2023-01-17T13:53:49.262Z,50.52
2023-01-17T13:56:35.729Z,50.95
2023-01-17T13:59:08.328Z,51.42
2023-01-17T14:01:53.749Z,51.37
2023-01-17T14:04:24.554Z,51.31
2023-01-17T14:06:55.581Z,52.42
2023-01-17T14:09:28.445Z,52.52
2023-01-17T14:12:00.943Z,52.55
2023-01-17T14:14:56.996Z,53.56
2023-01-17T14:17:58.975Z,52.93
2023-01-17T14:20:44.626Z,52.99
2023-01-17T14:23:27.343Z,51.97
2023-01-17T14:25:58.821Z,53.67
2023-01-17T14:28:32.301Z,53.88
2023-01-17T14:31:03.384Z,53.67
2023-01-17T14:33:36.515Z,53.80
2023-01-17T14:36:08.433Z,53.40
2023-01-17T14:38:43.983Z,52.86
2023-01-17T14:41:18.603Z,51.14
2023-01-17T14:43:49.307Z,52.16
2023-01-17T14:46:23.082Z,51.98
2023-01-17T14:48:52.231Z,53.40
2023-01-17T14:51:24.976Z,52.81
2023-01-17T14:53:55.864Z,52.48
2023-01-17T14:56:24.967Z,53.42
2023-01-17T14:59:07.061Z,53.87
2023-01-17T15:01:38.429Z,54.17
2023-01-17T15:04:07.258Z,55.34
2023-01-17T15:06:39.545Z,54.71
2023-01-17T15:09:12.336Z,55.62
2023-01-17T15:11:40.736Z,54.56
2023-01-17T15:14:09.450Z,52.81
2023-01-17T15:16:40.624Z,53.06
2023-01-17T15:19:13.103Z,53.82
2023-01-17T15:21:44.945Z,52.68
2023-01-17T15:24:20.053Z,54.18
2023-01-17T15:26:49.398Z,54.97
2023-01-17T15:29:26.389Z,55.41
2023-01-17T15:31:58.648Z,55.27
2023-01-17T15:34:30.222Z,55.29
2023-01-17T15:37:02.718Z,54.98
2023-01-17T15:39:33.106Z,52.68
2023-01-17T15:42:04.617Z,53.65
2023-01-17T15:44:47.622Z,55.44
2023-01-17T15:47:29.919Z,55.53
2023-01-17T15:49:57.962Z,53.94
2023-01-17T15:52:27.953Z,55.20
2023-01-17T15:55:01.174Z,53.52
2023-01-17T15:57:31.698Z,53.52
2023-01-17T16:00:05.800Z,53.15
2023-01-17T16:02:37.384Z,54.19
2023-01-17T16:05:39.136Z,52.80
2023-01-17T16:08:39.238Z,53.88
2023-01-17T16:11:08.841Z,54.24
2023-01-17T16:13:42.206Z,54.53
2023-01-17T16:16:16.167Z,53.69
2023-01-17T16:18:47.072Z,56.13
2023-01-17T16:21:23.381Z,54.12
2023-01-17T16:23:54.405Z,54.29
2023-01-17T16:26:23.743Z,54.09
2023-01-17T16:28:51.978Z,54.08
2023-01-17T16:31:22.109Z,54.23
2023-01-17T16:33:51.840Z,56.09
2023-01-17T16:36:21.417Z,55.71
2023-01-17T16:38:51.809Z,55.51
2023-01-17T16:41:21.738Z,56.04
2023-01-17T16:43:59.438Z,56.79
2023-01-17T16:46:28.378Z,56.75
2023-01-17T16:48:56.445Z,54.60
2023-01-17T16:51:24.718Z,55.49
2023-01-17T16:53:52.882Z,56.35
2023-01-17T16:56:22.232Z,56.67
2023-01-17T16:58:53.267Z,57.24
2023-01-17T17:01:22.991Z,58.23
2023-01-17T17:03:56.329Z,56.41
2023-01-17T17:06:24.858Z,56.84
2023-01-17T17:08:52.967Z,56.69
2023-01-17T17:11:24.320Z,57.12
2023-01-17T17:13:53.401Z,57.98
2023-01-17T17:16:26.949Z,57.76
2023-01-17T17:22:06.646Z,55.76
2023-01-17T17:24:34.813Z,56.55
2023-01-17T17:27:04.756Z,57.28
2023-01-17T17:29:32.749Z,58.12
2023-01-17T17:32:00.907Z,58.89
2023-01-17T17:34:31.194Z,57.56
2023-01-17T17:36:59.081Z,57.93
2023-01-17T17:39:27.002Z,57.87
2023-01-17T17:41:55.097Z,58.43
2023-01-17T17:44:24.522Z,59.36
2023-01-17T17:46:52.435Z,60.25
2023-01-17T17:49:22.182Z,61.32
2023-01-17T17:51:50.479Z,64.32
2023-01-17T17:54:18.919Z,65.09
2023-01-17T17:56:48.418Z,66.92
2023-01-17T17:59:19.543Z,68.11
2023-01-17T18:01:49.935Z,69.18
2023-01-17T18:04:18.553Z,70.30
2023-01-17T18:06:47.000Z,71.48
2023-01-17T18:09:15.417Z,71.81
2023-01-17T18:11:44.759Z,73.21
2023-01-17T18:14:15.427Z,74.66
2023-01-17T18:16:45.222Z,73.39
2023-01-17T18:19:17.882Z,74.78
2023-01-17T18:21:45.792Z,74.26
2023-01-17T18:24:15.595Z,75.06
2023-01-17T18:26:45.663Z,76.23
2023-01-17T18:29:16.480Z,77.66
2023-01-17T18:31:46.144Z,77.64
2023-01-17T18:34:17.519Z,77.01
2023-01-17T18:36:45.946Z,78.30
2023-01-17T18:39:16.203Z,78.05
2023-01-17T18:41:44.657Z,78.74
2023-01-17T18:44:13.028Z,78.80
2023-01-17T18:46:42.163Z,78.43
2023-01-17T18:49:12.375Z,79.23
2023-01-17T18:51:43.285Z,78.55
2023-01-17T18:54:11.491Z,79.61
2023-01-17T18:56:39.342Z,79.81
2023-01-17T18:59:09.466Z,80.32
2023-01-17T19:01:37.658Z,80.34
2023-01-17T19:04:06.812Z,80.39
2023-01-17T19:06:36.894Z,80.05
2023-01-17T19:09:08.540Z,79.89
2023-01-17T19:11:37.387Z,79.97
2023-01-17T19:14:05.717Z,80.32
2023-01-17T19:16:39.638Z,80.32
2023-01-17T19:19:10.467Z,80.99
2023-01-17T19:21:38.465Z,82.14
2023-01-17T19:24:08.937Z,81.97
2023-01-17T19:26:37.198Z,82.98
2023-01-17T19:29:06.734Z,83.35
2023-01-17T19:31:39.736Z,82.87
2023-01-17T19:34:07.698Z,84.17
2023-01-17T19:36:38.341Z,84.35
2023-01-17T19:39:10.438Z,85.45
2023-01-17T19:41:42.620Z,85.32
2023-01-17T19:44:12.762Z,86.11
2023-01-17T19:46:40.977Z,85.72
2023-01-17T19:49:10.710Z,86.50
2023-01-17T19:51:39.771Z,85.85
2023-01-17T19:54:09.485Z,86.81
2023-01-17T19:56:37.640Z,86.75
2023-01-17T19:59:06.483Z,87.28
2023-01-17T20:01:35.943Z,87.61
2023-01-17T20:04:05.223Z,87.66
2023-01-17T20:06:36.564Z,88.04
2023-01-17T20:09:05.932Z,88.12
2023-01-17T20:11:38.759Z,88.05
2023-01-17T20:14:06.640Z,88.46
2023-01-17T20:16:37.869Z,88.54
2023-01-17T20:19:06.379Z,88.82
2023-01-17T20:21:34.935Z,89.29
2023-01-17T20:24:04.279Z,89.61
2023-01-17T20:26:36.396Z,88.90
2023-01-17T20:29:10.496Z,88.76
2023-01-17T20:31:39.220Z,88.67
2023-01-17T20:34:09.967Z,89.45
2023-01-17T20:36:38.579Z,90.04
2023-01-17T20:39:08.466Z,89.51
2023-01-17T20:41:42.397Z,90.68
2023-01-17T20:44:14.376Z,91.08
2023-01-17T20:46:43.283Z,90.63
2023-01-17T20:49:15.569Z,90.63
2023-01-17T20:51:45.738Z,90.81
2023-01-17T20:54:16.107Z,90.88
2023-01-17T20:56:47.423Z,90.46
2023-01-17T20:59:17.946Z,91.18
2023-01-17T21:01:46.496Z,91.13
2023-01-17T21:04:15.088Z,90.07
2023-01-17T21:06:44.491Z,90.02
2023-01-17T21:09:14.147Z,89.94
2023-01-17T21:11:42.378Z,90.58
2023-01-17T21:14:12.027Z,89.20
2023-01-17T21:16:40.366Z,89.01
2023-01-17T21:19:09.211Z,89.81
2023-01-17T21:21:37.413Z,89.35
2023-01-17T21:24:06.220Z,89.04
2023-01-17T21:26:34.842Z,89.47
2023-01-17T21:29:03.646Z,89.29
2023-01-17T21:31:35.015Z,88.92
2023-01-17T21:34:05.870Z,89.90
2023-01-17T21:36:35.405Z,89.57
2023-01-17T21:39:06.772Z,89.20
2023-01-17T21:41:37.133Z,89.02
2023-01-17T21:44:08.801Z,88.97
2023-01-17T21:46:40.158Z,89.07
2023-01-17T21:49:10.718Z,88.71
2023-01-17T21:51:56.879Z,89.62
2023-01-17T21:54:51.298Z,88.70
2023-01-17T21:57:38.446Z,89.83
2023-01-17T22:00:09.015Z,89.53
2023-01-17T22:02:38.512Z,89.57
2023-01-17T22:05:07.811Z,88.93
2023-01-17T22:07:36.439Z,88.30
2023-01-17T22:10:04.400Z,88.91
2023-01-17T22:12:34.053Z,88.67
2023-01-17T22:15:01.960Z,89.40
2023-01-17T22:17:30.749Z,88.50
2023-01-17T22:20:00.430Z,88.85
2023-01-17T22:22:28.774Z,89.11
2023-01-17T22:24:56.625Z,88.79
2023-01-17T22:27:24.905Z,88.37
2023-01-17T22:29:52.744Z,88.70
2023-01-17T22:32:21.365Z,88.64
2023-01-17T22:34:49.484Z,87.93
2023-01-17T22:37:19.076Z,89.44
2023-01-17T22:39:46.944Z,89.21
2023-01-17T22:42:16.591Z,89.23
2023-01-17T22:44:45.739Z,90.06
2023-01-17T22:47:14.252Z,90.76
2023-01-17T22:49:42.232Z,90.00
2023-01-17T22:52:10.188Z,91.37
2023-01-17T22:54:39.750Z,91.45
2023-01-17T22:57:07.686Z,91.40
2023-01-17T22:59:36.513Z,91.32
2023-01-17T23:02:04.413Z,90.69
2023-01-17T23:04:32.318Z,91.20
2023-01-17T23:07:00.800Z,90.85
2023-01-17T23:09:29.138Z,91.63
2023-01-17T23:11:58.358Z,91.03
2023-01-17T23:14:28.377Z,91.01
2023-01-17T23:17:18.205Z,90.93
2023-01-17T23:19:49.389Z,90.81
2023-01-17T23:22:22.168Z,91.45
2023-01-17T23:24:52.699Z,90.95
2023-01-17T23:27:44.327Z,91.56
2023-01-17T23:30:15.636Z,91.31
2023-01-17T23:32:46.840Z,90.42
2023-01-17T23:35:15.797Z,90.87
2023-01-17T23:38:01.721Z,90.38
2023-01-17T23:40:30.405Z,90.59
2023-01-17T23:43:17.151Z,89.77
2023-01-17T23:45:46.036Z,90.36
2023-01-17T23:48:14.010Z,89.92
2023-01-17T23:50:44.233Z,90.58
2023-01-17T23:53:16.590Z,91.01
2023-01-17T23:55:45.747Z,90.15
2023-01-17T23:58:14.983Z,90.89
